Terminal Aerodrome Forecast
Issued by NWS Sioux Falls, SD

Home | Current Version | Previous Version | Text Only | Print | Product List | Glossary On
Versions: 1 2 3 4 5 6 7 8 9 10 11 12
310
FTUS43 KFSD 152320
TAFHON
TAF
KHON 152320Z 1600/1624 28009KT P6SM SKC
     FM160800 21004KT P6SM SKC
     FM161600 19010KT P6SM SKC=

USA.gov is the U.S. government's official web portal to all federal, state and local government web resources and services.